createdAt,value
2018-12-18T00:00:38.353Z,7.31
2018-12-18T00:01:38.624Z,7.31
2018-12-18T00:02:38.386Z,7.32
2018-12-18T00:03:43.766Z,7.29
2018-12-18T00:04:38.158Z,7.32
2018-12-18T00:05:38.434Z,7.29
2018-12-18T00:06:38.201Z,7.28
2018-12-18T00:07:38.467Z,7.35
2018-12-18T00:08:38.485Z,7.31
2018-12-18T00:09:38.525Z,7.32
2018-12-18T00:10:38.537Z,7.32
2018-12-18T00:11:38.793Z,7.32
2018-12-18T00:12:38.564Z,7.33
2018-12-18T00:13:38.578Z,7.32
2018-12-18T00:14:39.248Z,7.31
2018-12-18T00:15:38.610Z,7.32
2018-12-18T00:16:38.624Z,7.29
2018-12-18T00:17:38.637Z,7.31
2018-12-18T00:18:38.397Z,7.29
2018-12-18T00:19:38.679Z,7.36
2018-12-18T00:20:38.687Z,7.35
2018-12-18T00:21:38.715Z,7.29
2018-12-18T00:22:39.014Z,7.32
2018-12-18T00:23:38.747Z,7.32
2018-12-18T00:24:38.512Z,7.38
2018-12-18T00:25:38.526Z,7.39
2018-12-18T00:26:38.790Z,7.31
2018-12-18T00:27:38.549Z,7.35
2018-12-18T00:28:38.575Z,7.32
2018-12-18T00:29:39.102Z,7.31
2018-12-18T00:30:38.863Z,7.42
2018-12-18T00:31:38.616Z,7.33
2018-12-18T00:32:38.899Z,7.36
2018-12-18T00:33:38.908Z,7.36
2018-12-18T00:34:38.678Z,7.32
2018-12-18T00:35:38.689Z,7.38
2018-12-18T00:36:38.957Z,7.36
2018-12-18T00:37:38.732Z,7.42
2018-12-18T00:38:38.738Z,7.42
2018-12-18T00:39:38.762Z,7.31
2018-12-18T00:40:38.775Z,7.43
2018-12-18T00:41:39.049Z,7.4
2018-12-18T00:42:39.064Z,7.39
2018-12-18T00:43:38.840Z,7.45
2018-12-18T00:44:38.840Z,7.47
2018-12-18T00:45:39.118Z,7.4
2018-12-18T00:46:39.141Z,7.38
2018-12-18T00:47:38.897Z,7.36
2018-12-18T00:48:38.913Z,7.4
2018-12-18T00:49:39.188Z,7.43
2018-12-18T00:50:39.210Z,7.45
2018-12-18T00:51:39.487Z,7.42
2018-12-18T00:52:39.242Z,7.39
2018-12-18T00:53:39.253Z,7.42
2018-12-18T00:54:39.268Z,7.39
2018-12-18T00:55:39.555Z,7.45
2018-12-18T00:56:39.300Z,7.43
2018-12-18T00:57:39.316Z,7.53
2018-12-18T00:58:39.606Z,7.54
2018-12-18T00:59:39.610Z,7.51
2018-12-18T01:00:39.121Z,7.5
2018-12-18T01:01:39.393Z,7.47
2018-12-18T01:02:39.406Z,7.4
2018-12-18T01:03:39.420Z,7.51
2018-12-18T01:04:39.438Z,7.51
2018-12-18T01:05:39.200Z,7.54
2018-12-18T01:06:39.743Z,7.5
2018-12-18T01:07:39.252Z,7.47
2018-12-18T01:08:39.517Z,7.5
2018-12-18T01:09:39.263Z,7.45
2018-12-18T01:10:39.293Z,7.56
2018-12-18T01:11:39.560Z,7.5
2018-12-18T01:12:39.581Z,7.42
2018-12-18T01:13:39.333Z,7.56
2018-12-18T01:14:39.622Z,7.5
2018-12-18T01:15:39.375Z,7.51
2018-12-18T01:16:39.386Z,7.43
2018-12-18T01:17:39.666Z,7.5
2018-12-18T01:18:39.950Z,7.5
2018-12-18T01:19:39.693Z,7.45
2018-12-18T01:20:39.994Z,7.51
2018-12-18T01:21:39.996Z,7.45
2018-12-18T01:22:39.769Z,7.45
2018-12-18T01:23:39.503Z,7.51
2018-12-18T01:24:39.526Z,7.56
2018-12-18T01:25:40.070Z,7.56
2018-12-18T01:26:39.814Z,7.47
2018-12-18T01:27:39.841Z,7.5
2018-12-18T01:28:39.862Z,7.45
2018-12-18T01:29:39.874Z,7.51
2018-12-18T01:30:39.632Z,7.48
2018-12-18T01:31:40.171Z,7.5
2018-12-18T01:32:40.196Z,7.54
2018-12-18T01:33:39.940Z,7.43
2018-12-18T01:34:39.717Z,7.47
2018-12-18T01:35:39.978Z,7.54
2018-12-18T01:36:40.006Z,7.47
2018-12-18T01:37:39.756Z,7.38
2018-12-18T01:38:40.031Z,7.45
2018-12-18T01:39:40.047Z,7.5
2018-12-18T01:40:39.803Z,7.5
2018-12-18T01:41:39.818Z,7.43
2018-12-18T01:42:40.364Z,7.38
2018-12-18T01:43:39.864Z,7.42
2018-12-18T01:44:39.878Z,7.54
2018-12-18T01:45:40.402Z,7.5
2018-12-18T01:46:40.165Z,7.47
2018-12-18T01:47:40.439Z,7.5
2018-12-18T01:48:40.193Z,7.5
2018-12-18T01:49:40.208Z,7.54
2018-12-18T01:50:40.485Z,7.54
2018-12-18T01:51:39.987Z,7.53
2018-12-18T01:52:40.006Z,7.53
2018-12-18T01:53:40.280Z,7.51
2018-12-18T01:54:40.302Z,7.51
2018-12-18T01:55:40.071Z,7.53
2018-12-18T01:56:40.352Z,7.38
2018-12-18T01:57:40.609Z,7.43
2018-12-18T01:58:40.372Z,7.42
2018-12-18T01:59:40.641Z,7.42
2018-12-18T02:00:40.433Z,7.4
2018-12-18T02:01:40.430Z,7.4
2018-12-18T02:02:40.447Z,7.35
2018-12-18T02:03:40.457Z,7.38
2018-12-18T02:04:40.474Z,7.42
2018-12-18T02:05:40.235Z,7.43
2018-12-18T02:06:40.514Z,7.39
2018-12-18T02:07:40.522Z,7.4
2018-12-18T02:08:40.556Z,7.39
2018-12-18T02:09:40.556Z,7.33
2018-12-18T02:10:40.572Z,7.31
2018-12-18T02:11:40.610Z,7.32
2018-12-18T02:12:40.606Z,7.32
2018-12-18T02:13:40.623Z,7.32
2018-12-18T02:14:40.388Z,7.35
2018-12-18T02:15:40.657Z,7.38
2018-12-18T02:16:40.683Z,7.35
2018-12-18T02:17:40.693Z,7.42
2018-12-18T02:18:40.466Z,7.43
2018-12-18T02:19:40.984Z,7.31
2018-12-18T02:20:40.757Z,7.4
2018-12-18T02:21:40.504Z,7.36
2018-12-18T02:22:40.531Z,7.39
2018-12-18T02:23:40.540Z,7.36
2018-12-18T02:24:40.820Z,7.35
2018-12-18T02:25:41.089Z,7.43
2018-12-18T02:26:40.592Z,7.32
2018-12-18T02:27:41.144Z,7.39
2018-12-18T02:28:40.879Z,7.4
2018-12-18T02:29:40.641Z,7.38
2018-12-18T02:30:41.201Z,7.42
2018-12-18T02:31:41.212Z,7.42
2018-12-18T02:32:40.707Z,7.35
2018-12-18T02:33:40.980Z,7.38
2018-12-18T02:34:40.732Z,7.45
2018-12-18T02:35:41.014Z,7.42
2018-12-18T02:36:41.277Z,7.39
2018-12-18T02:37:41.038Z,7.36
2018-12-18T02:38:41.328Z,7.38
2018-12-18T02:39:41.071Z,7.42
2018-12-18T02:40:41.095Z,7.42
2018-12-18T02:41:41.131Z,7.38
2018-12-18T02:42:41.122Z,7.42
2018-12-18T02:43:41.151Z,7.43
2018-12-18T02:44:41.168Z,7.42
2018-12-18T02:45:41.186Z,7.45
2018-12-18T02:46:41.203Z,7.4
2018-12-18T02:47:40.947Z,7.38
2018-12-18T02:48:41.243Z,7.5
2018-12-18T02:49:40.983Z,7.45
2018-12-18T02:50:41.014Z,7.43
2018-12-18T02:51:41.028Z,7.47
2018-12-18T02:52:41.054Z,7.42
2018-12-18T02:53:41.334Z,7.43
2018-12-18T02:54:41.363Z,7.39
2018-12-18T02:55:41.607Z,7.42
2018-12-18T02:56:41.374Z,7.42
2018-12-18T02:57:41.141Z,7.48
2018-12-18T02:58:41.415Z,7.47
2018-12-18T02:59:41.417Z,7.43
2018-12-18T03:00:41.692Z,7.48
2018-12-18T03:01:41.466Z,7.48
2018-12-18T03:02:41.480Z,7.48
2018-12-18T03:03:41.226Z,7.5
2018-12-18T03:04:41.522Z,7.51
2018-12-18T03:05:41.264Z,7.53
2018-12-18T03:06:41.547Z,7.5
2018-12-18T03:07:41.812Z,7.43
2018-12-18T03:08:41.583Z,7.5
2018-12-18T03:09:41.854Z,7.43
2018-12-18T03:10:41.872Z,7.43
2018-12-18T03:11:41.361Z,7.4
2018-12-18T03:12:41.646Z,7.42
2018-12-18T03:13:41.396Z,7.42
2018-12-18T03:14:41.421Z,7.42
2018-12-18T03:15:41.426Z,7.42
2018-12-18T03:16:41.707Z,7.4
2018-12-18T03:17:41.987Z,7.48
2018-12-18T03:18:41.738Z,7.4
2018-12-18T03:19:41.502Z,7.38
2018-12-18T03:20:41.796Z,7.38
2018-12-18T03:21:41.533Z,7.43
2018-12-18T03:22:41.568Z,7.42
2018-12-18T03:23:41.574Z,7.4
2018-12-18T03:24:41.585Z,7.43
2018-12-18T03:25:41.624Z,7.39
2018-12-18T03:26:42.166Z,7.43
2018-12-18T03:27:41.908Z,7.43
2018-12-18T03:28:41.921Z,7.43
2018-12-18T03:29:41.684Z,7.38
2018-12-18T03:30:42.221Z,7.42
2018-12-18T03:31:41.789Z,7.38
2018-12-18T03:32:42.006Z,7.45
2018-12-18T03:33:42.000Z,7.42
2018-12-18T03:34:42.042Z,7.38
2018-12-18T03:35:42.025Z,7.48
2018-12-18T03:36:42.055Z,7.39
2018-12-18T03:37:41.806Z,7.4
2018-12-18T03:38:42.105Z,7.42
2018-12-18T03:39:41.847Z,7.42
2018-12-18T03:40:42.125Z,7.42
2018-12-18T03:41:42.144Z,7.32
2018-12-18T03:42:42.407Z,7.38
2018-12-18T03:43:41.929Z,7.31
2018-12-18T03:44:42.526Z,7.28
2018-12-18T03:45:42.202Z,7.28
2018-12-18T03:46:42.221Z,7.32
2018-12-18T03:47:42.514Z,7.28
2018-12-18T03:48:42.003Z,7.32
2018-12-18T03:49:42.533Z,7.24
2018-12-18T03:50:42.032Z,7.35
2018-12-18T03:51:42.337Z,7.33
2018-12-18T03:52:42.752Z,7.17
2018-12-18T03:53:42.613Z,7.18
2018-12-18T03:54:42.628Z,7.21
2018-12-18T03:55:42.391Z,7.1
2018-12-18T03:56:42.137Z,7.18
2018-12-18T03:57:42.420Z,7.2
2018-12-18T03:58:42.171Z,7.18
2018-12-18T03:59:42.444Z,7.21
2018-12-18T04:00:42.550Z,7.23
2018-12-18T04:01:42.480Z,7.17
2018-12-18T04:02:42.257Z,7.2
2018-12-18T04:03:42.512Z,7.2
2018-12-18T04:04:42.281Z,7.24
2018-12-18T04:05:42.295Z,7.18
2018-12-18T04:06:42.562Z,7.2
2018-12-18T04:07:42.609Z,7.2
2018-12-18T04:08:42.344Z,7.14
2018-12-18T04:09:42.362Z,7.14
2018-12-18T04:10:42.649Z,7.29
2018-12-18T04:11:42.668Z,7.17
2018-12-18T04:12:42.679Z,7.21
2018-12-18T04:13:42.679Z,7.15
2018-12-18T04:14:42.717Z,7.14
2018-12-18T04:15:42.725Z,7.17
2018-12-18T04:16:43.003Z,7.21
2018-12-18T04:17:42.757Z,7.2
2018-12-18T04:18:42.514Z,7.29
2018-12-18T04:19:43.068Z,7.24
2018-12-18T04:20:42.811Z,7.28
2018-12-18T04:21:43.076Z,7.28
2018-12-18T04:22:43.150Z,7.28
2018-12-18T04:23:42.859Z,7.25
2018-12-18T04:24:42.893Z,7.29
2018-12-18T04:25:42.639Z,7.28
2018-12-18T04:26:42.903Z,7.31
2018-12-18T04:27:42.935Z,7.28
2018-12-18T04:28:42.958Z,7.39
2018-12-18T04:29:43.214Z,7.32
2018-12-18T04:30:42.722Z,7.32
2018-12-18T04:31:42.749Z,7.31
2018-12-18T04:32:43.011Z,7.36
2018-12-18T04:33:42.776Z,7.31
2018-12-18T04:34:47.677Z,7.33
2018-12-18T04:35:43.065Z,7.29
2018-12-18T04:36:43.090Z,7.31
2018-12-18T04:37:42.845Z,7.32
2018-12-18T04:38:42.860Z,7.39
2018-12-18T04:39:43.398Z,7.38
2018-12-18T04:40:43.427Z,7.39
2018-12-18T04:41:42.917Z,7.4
2018-12-18T04:42:42.924Z,7.35
2018-12-18T04:43:42.949Z,7.43
2018-12-18T04:44:42.968Z,7.39
2018-12-18T04:45:42.973Z,7.4
2018-12-18T04:46:43.252Z,7.5
2018-12-18T04:47:43.523Z,7.38
2018-12-18T04:48:43.283Z,7.47
2018-12-18T04:49:43.309Z,7.5
2018-12-18T04:50:43.319Z,7.4
2018-12-18T04:51:43.657Z,7.48
2018-12-18T04:52:43.349Z,7.42
2018-12-18T04:53:43.635Z,7.43
2018-12-18T04:54:43.667Z,7.43
2018-12-18T04:55:43.679Z,7.5
2018-12-18T04:56:43.168Z,7.43
2018-12-18T04:57:43.443Z,7.5
2018-12-18T04:58:43.465Z,7.51
2018-12-18T04:59:43.747Z,7.43
2018-12-18T05:00:43.754Z,7.43
2018-12-18T05:01:43.528Z,7.4
2018-12-18T05:02:43.522Z,7.47
2018-12-18T05:03:43.278Z,7.43
2018-12-18T05:04:49.922Z,7.38
2018-12-18T05:05:43.582Z,7.4
2018-12-18T05:06:43.338Z,7.4
2018-12-18T05:07:43.348Z,7.43
2018-12-18T05:08:43.374Z,7.51
2018-12-18T05:09:43.395Z,7.53
2018-12-18T05:10:43.663Z,7.5
2018-12-18T05:11:43.691Z,7.51
2018-12-18T05:12:43.446Z,7.5
2018-12-18T05:13:43.720Z,7.54
2018-12-18T05:14:43.731Z,7.51
2018-12-18T05:15:43.541Z,7.45
2018-12-18T05:16:44.027Z,7.5
2018-12-18T05:17:43.527Z,7.51
2018-12-18T05:18:44.051Z,7.51
2018-12-18T05:19:43.815Z,7.47
2018-12-18T05:20:43.842Z,7.42
2018-12-18T05:21:43.848Z,7.42
2018-12-18T05:22:44.127Z,7.45
2018-12-18T05:23:44.151Z,7.54
2018-12-18T05:24:44.174Z,7.48
2018-12-18T05:25:43.662Z,7.42
2018-12-18T05:26:44.013Z,7.48
2018-12-18T05:27:43.695Z,7.54
2018-12-18T05:28:43.776Z,7.48
2018-12-18T05:29:43.746Z,7.47
2018-12-18T05:30:44.018Z,7.48
2018-12-18T05:31:44.042Z,7.51
2018-12-18T05:32:44.043Z,7.5
2018-12-18T05:33:43.800Z,7.5
2018-12-18T05:34:44.084Z,7.6
2018-12-18T05:35:43.831Z,7.48
2018-12-18T05:36:43.849Z,7.56
2018-12-18T05:37:44.127Z,7.53
2018-12-18T05:38:43.882Z,7.57
2018-12-18T05:39:43.908Z,7.5
2018-12-18T05:40:43.925Z,7.53
2018-12-18T05:41:44.203Z,7.54
2018-12-18T05:42:43.958Z,7.56
2018-12-18T05:43:43.980Z,7.54
2018-12-18T05:44:44.254Z,7.53
2018-12-18T05:45:44.260Z,7.51
2018-12-18T05:46:44.537Z,7.58
2018-12-18T05:47:44.305Z,7.51
2018-12-18T05:48:44.324Z,7.6
2018-12-18T05:49:44.347Z,7.53
2018-12-18T05:50:44.608Z,7.54
2018-12-18T05:51:44.623Z,7.53
2018-12-18T05:52:44.132Z,7.61
2018-12-18T05:53:44.137Z,7.57
2018-12-18T05:54:44.690Z,7.56
2018-12-18T05:55:44.457Z,7.54
2018-12-18T05:56:44.468Z,7.5
2018-12-18T05:57:44.265Z,7.6
2018-12-18T05:58:44.501Z,7.54
2018-12-18T05:59:44.245Z,7.54
2018-12-18T06:00:44.522Z,7.54
2018-12-18T06:01:44.552Z,7.57
2018-12-18T06:02:44.559Z,7.53
2018-12-18T06:03:44.316Z,7.63
2018-12-18T06:04:44.588Z,7.56
2018-12-18T06:05:44.347Z,7.57
2018-12-18T06:06:44.376Z,7.54
2018-12-18T06:07:44.383Z,7.51
2018-12-18T06:08:44.401Z,7.54
2018-12-18T06:09:44.696Z,7.56
2018-12-18T06:10:44.698Z,7.57
2018-12-18T06:11:44.468Z,7.56
2018-12-18T06:12:46.013Z,7.56
2018-12-18T06:13:44.498Z,7.56
2018-12-18T06:14:44.771Z,7.53
2018-12-18T06:15:44.780Z,7.56
2018-12-18T06:16:44.548Z,7.58
2018-12-18T06:17:44.811Z,7.5
2018-12-18T06:18:44.582Z,7.5
2018-12-18T06:19:44.594Z,7.58
2018-12-18T06:20:44.872Z,7.56
2018-12-18T06:21:44.895Z,7.54
2018-12-18T06:22:44.906Z,7.56
2018-12-18T06:23:44.919Z,7.57
2018-12-18T06:24:44.678Z,7.53
2018-12-18T06:25:44.964Z,7.51
2018-12-18T06:26:44.722Z,7.61
2018-12-18T06:27:44.984Z,7.57
2018-12-18T06:28:45.018Z,7.5
2018-12-18T06:29:44.768Z,7.56
2018-12-18T06:30:44.782Z,7.57
2018-12-18T06:31:44.812Z,7.5
2018-12-18T06:32:45.078Z,7.61
2018-12-18T06:33:44.841Z,7.5
2018-12-18T06:34:45.364Z,7.58
2018-12-18T06:35:45.398Z,7.51
2018-12-18T06:36:45.399Z,7.48
2018-12-18T06:37:45.174Z,7.51
2018-12-18T06:38:45.177Z,7.48
2018-12-18T06:39:45.209Z,7.53
2018-12-18T06:40:44.953Z,7.51
2018-12-18T06:41:44.974Z,7.48
2018-12-18T06:42:45.002Z,7.48
2018-12-18T06:43:45.007Z,7.5
2018-12-18T06:44:45.024Z,7.47
2018-12-18T06:45:45.050Z,7.48
2018-12-18T06:46:45.058Z,7.5
2018-12-18T06:47:45.077Z,7.53
2018-12-18T06:48:45.364Z,7.47
2018-12-18T06:49:45.106Z,7.51
2018-12-18T06:50:45.400Z,7.56
2018-12-18T06:51:45.656Z,7.51
2018-12-18T06:52:45.166Z,7.56
2018-12-18T06:53:45.441Z,7.47
2018-12-18T06:54:45.209Z,7.5
2018-12-18T06:55:45.472Z,7.43
2018-12-18T06:56:45.497Z,7.47
2018-12-18T06:57:45.513Z,7.51
2018-12-18T06:58:45.776Z,7.6
2018-12-18T06:59:45.280Z,7.53
2018-12-18T07:00:45.824Z,7.51
2018-12-18T07:01:45.313Z,7.54
2018-12-18T07:02:45.595Z,7.6
2018-12-18T07:03:45.365Z,7.57
2018-12-18T07:04:45.632Z,7.53
2018-12-18T07:05:45.915Z,7.5
2018-12-18T07:06:45.404Z,7.5
2018-12-18T07:07:45.935Z,7.57
2018-12-18T07:08:45.444Z,7.51
2018-12-18T07:09:45.449Z,7.5
2018-12-18T07:10:45.735Z,7.53
2018-12-18T07:11:45.747Z,7.57
2018-12-18T07:12:45.511Z,7.54
2018-12-18T07:13:45.779Z,7.53
2018-12-18T07:14:46.074Z,7.56
2018-12-18T07:15:45.567Z,7.5
2018-12-18T07:16:45.829Z,7.57
2018-12-18T07:17:46.125Z,7.56
2018-12-18T07:18:45.873Z,7.57
2018-12-18T07:19:46.146Z,7.57
2018-12-18T07:20:45.911Z,7.61
2018-12-18T07:21:45.652Z,7.53
2018-12-18T07:22:45.943Z,7.56
2018-12-18T07:23:45.702Z,7.6
2018-12-18T07:24:45.969Z,7.53
2018-12-18T07:25:45.992Z,7.6
2018-12-18T07:26:46.009Z,7.56
2018-12-18T07:27:46.020Z,7.57
2018-12-18T07:28:46.295Z,7.56
2018-12-18T07:29:46.382Z,7.54
2018-12-18T07:30:46.078Z,7.57
2018-12-18T07:31:46.103Z,7.5
2018-12-18T07:32:46.114Z,7.56
2018-12-18T07:33:46.140Z,7.51
2018-12-18T07:34:47.557Z,7.56
2018-12-18T07:35:46.162Z,7.53
2018-12-18T07:36:45.914Z,7.53
2018-12-18T07:37:46.199Z,7.54
2018-12-18T07:38:46.210Z,7.54
2018-12-18T07:39:45.964Z,7.63
2018-12-18T07:40:45.993Z,7.54
2018-12-18T07:41:46.264Z,7.56
2018-12-18T07:42:46.290Z,7.56
2018-12-18T07:43:46.040Z,7.63
2018-12-18T07:44:46.311Z,7.63
2018-12-18T07:45:46.071Z,7.63
2018-12-18T07:46:46.369Z,7.63
2018-12-18T07:47:46.109Z,7.61
2018-12-18T07:48:46.136Z,7.58
2018-12-18T07:49:46.145Z,7.57
2018-12-18T07:50:46.166Z,7.58
2018-12-18T07:51:46.186Z,7.58
2018-12-18T07:52:46.465Z,7.66
2018-12-18T07:53:46.221Z,7.63
2018-12-18T07:54:46.486Z,7.57
2018-12-18T07:55:46.260Z,7.67
2018-12-18T07:56:46.851Z,7.58
2018-12-18T07:57:46.289Z,7.7
2018-12-18T07:58:46.552Z,7.69
2018-12-18T07:59:46.579Z,7.66
2018-12-18T08:00:46.603Z,7.63
2018-12-18T08:01:46.612Z,7.61
2018-12-18T08:02:46.625Z,7.63
2018-12-18T08:03:46.646Z,7.73
2018-12-18T08:04:46.663Z,7.67
2018-12-18T08:05:46.938Z,7.67
2018-12-18T08:06:46.436Z,7.66
2018-12-18T08:07:46.729Z,7.63
2018-12-18T08:08:46.723Z,7.67
2018-12-18T08:09:46.758Z,7.76
2018-12-18T08:10:46.769Z,7.72
2018-12-18T08:11:46.530Z,7.69
2018-12-18T08:12:46.795Z,7.7
2018-12-18T08:13:47.081Z,7.72
2018-12-18T08:14:46.859Z,7.73
2018-12-18T08:15:48.186Z,7.7
2018-12-18T08:16:46.625Z,7.83
2018-12-18T08:17:47.146Z,7.82
2018-12-18T08:18:46.913Z,7.77
2018-12-18T08:19:46.917Z,7.8
2018-12-18T08:20:48.430Z,7.77
2018-12-18T08:21:46.705Z,7.8
2018-12-18T08:22:46.722Z,7.82
2018-12-18T08:23:46.988Z,7.79
2018-12-18T08:24:47.012Z,7.8
2018-12-18T08:25:47.018Z,7.88
2018-12-18T08:26:46.791Z,7.87
2018-12-18T08:27:47.057Z,7.82
2018-12-18T08:28:46.836Z,7.85
2018-12-18T08:29:46.848Z,7.93
2018-12-18T08:30:47.117Z,7.82
2018-12-18T08:31:47.128Z,7.88
2018-12-18T08:32:46.889Z,7.83
2018-12-18T08:33:46.901Z,7.83
2018-12-18T08:34:47.183Z,7.95
2018-12-18T08:35:47.214Z,7.9
2018-12-18T08:36:47.230Z,7.94
2018-12-18T08:37:46.967Z,7.9
2018-12-18T08:38:46.995Z,7.94
2018-12-18T08:39:47.539Z,8
2018-12-18T08:40:47.031Z,7.98
2018-12-18T08:41:47.300Z,8
2018-12-18T08:42:47.326Z,7.98
2018-12-18T08:43:47.339Z,8
2018-12-18T08:44:47.103Z,8.05
2018-12-18T08:45:47.362Z,7.97
2018-12-18T08:46:47.385Z,8.08
2018-12-18T08:47:47.403Z,7.98
2018-12-18T08:48:47.438Z,8.1
2018-12-18T08:49:47.182Z,8.09
2018-12-18T08:50:47.466Z,8.06
2018-12-18T08:51:47.226Z,8.08
2018-12-18T08:52:47.570Z,8.08
2018-12-18T08:53:47.773Z,8.13
2018-12-18T08:54:47.527Z,8.08
2018-12-18T08:55:47.802Z,8.12
2018-12-18T08:56:47.824Z,8.16
2018-12-18T08:57:47.592Z,8.09
2018-12-18T08:58:47.862Z,8.16
2018-12-18T08:59:47.353Z,8.15
2018-12-18T09:00:47.628Z,8.18
2018-12-18T09:01:47.655Z,8.18
2018-12-18T09:02:47.672Z,8.16
2018-12-18T09:03:47.798Z,8.16
2018-12-18T09:04:47.446Z,8.15
2018-12-18T09:05:48.376Z,8.15
2018-12-18T09:06:47.740Z,8.13
2018-12-18T09:07:48.015Z,8.18
2018-12-18T09:08:47.514Z,8.2
2018-12-18T09:09:47.532Z,8.2
2018-12-18T09:10:47.801Z,8.23
2018-12-18T09:11:47.567Z,8.24
2018-12-18T09:12:47.920Z,8.27
2018-12-18T09:13:47.869Z,8.27
2018-12-18T09:14:47.873Z,8.3
2018-12-18T09:15:47.892Z,8.23
2018-12-18T09:16:48.161Z,8.26
2018-12-18T09:17:47.921Z,8.19
2018-12-18T09:18:47.682Z,8.31
2018-12-18T09:19:47.727Z,8.24
2018-12-18T09:20:47.738Z,8.31
2018-12-18T09:21:47.736Z,8.27
2018-12-18T09:22:47.760Z,8.3
2018-12-18T09:23:47.781Z,8.27
2018-12-18T09:24:47.798Z,8.33
2018-12-18T09:25:48.337Z,8.26
2018-12-18T09:26:48.339Z,8.33
2018-12-18T09:27:48.100Z,8.27
2018-12-18T09:28:47.873Z,8.27
2018-12-18T09:29:48.150Z,8.3
2018-12-18T09:30:48.166Z,8.3
2018-12-18T09:31:48.181Z,8.3
2018-12-18T09:32:48.188Z,8.33
2018-12-18T09:33:48.196Z,8.24
2018-12-18T09:34:48.529Z,8.27
2018-12-18T09:35:54.199Z,8.33
2018-12-18T09:36:48.008Z,8.33
2018-12-18T09:37:48.017Z,8.31
2018-12-18T09:38:48.029Z,8.3
2018-12-18T09:39:48.378Z,8.28
2018-12-18T09:40:48.319Z,8.28
2018-12-18T09:41:48.342Z,8.28
2018-12-18T09:42:48.358Z,8.26
2018-12-18T09:43:48.374Z,8.28
2018-12-18T09:44:48.394Z,8.24
2018-12-18T09:45:48.428Z,8.31
2018-12-18T09:46:48.167Z,8.24
2018-12-18T09:47:48.187Z,8.27
2018-12-18T09:48:48.209Z,8.26
2018-12-18T09:49:48.483Z,8.28
2018-12-18T09:50:48.764Z,8.3
2018-12-18T09:51:48.520Z,8.26
2018-12-18T09:52:48.530Z,8.27
2018-12-18T09:53:48.291Z,8.3
2018-12-18T09:54:48.570Z,8.26
2018-12-18T09:55:48.841Z,8.26
2018-12-18T09:56:48.602Z,8.31
2018-12-18T09:57:48.625Z,8.28
2018-12-18T09:58:48.387Z,8.26
2018-12-18T09:59:48.687Z,8.33
2018-12-18T10:00:48.678Z,8.28
2018-12-18T10:01:48.428Z,8.28
2018-12-18T10:02:48.722Z,8.28
2018-12-18T10:03:48.979Z,8.23
2018-12-18T10:04:48.760Z,8.28
2018-12-18T10:05:48.774Z,8.34
2018-12-18T10:06:49.792Z,8.31
2018-12-18T10:07:48.538Z,8.3
2018-12-18T10:08:49.078Z,8.36
2018-12-18T10:09:48.845Z,8.31
2018-12-18T10:10:48.868Z,8.31
2018-12-18T10:11:48.660Z,8.27
2018-12-18T10:12:48.884Z,8.27
2018-12-18T10:13:48.900Z,8.31
2018-12-18T10:14:48.664Z,8.3
2018-12-18T10:15:48.937Z,8.26
2018-12-18T10:16:48.947Z,8.3
2018-12-18T10:17:48.993Z,8.33
2018-12-18T10:18:49.245Z,8.28
2018-12-18T10:19:49.030Z,8.3
2018-12-18T10:20:49.022Z,8.31
2018-12-18T10:21:48.781Z,8.31
2018-12-18T10:22:49.325Z,8.31
2018-12-18T10:23:49.074Z,8.31
2018-12-18T10:24:49.368Z,8.31
2018-12-18T10:25:49.118Z,8.28
2018-12-18T10:26:48.877Z,8.28
2018-12-18T10:27:49.413Z,8.33
2018-12-18T10:28:48.912Z,8.33
2018-12-18T10:29:48.926Z,8.27
2018-12-18T10:30:49.459Z,8.31
2018-12-18T10:31:48.951Z,8.31
2018-12-18T10:32:49.246Z,8.3
2018-12-18T10:33:48.997Z,8.34
2018-12-18T10:34:49.325Z,8.31
2018-12-18T10:35:49.555Z,8.33
2018-12-18T10:36:49.310Z,8.36
2018-12-18T10:37:49.319Z,8.28
2018-12-18T10:38:49.077Z,8.3
2018-12-18T10:39:49.109Z,8.28
2018-12-18T10:40:49.373Z,8.26
2018-12-18T10:41:49.150Z,8.28
2018-12-18T10:42:49.414Z,8.28
2018-12-18T10:43:49.434Z,8.28
2018-12-18T10:44:49.188Z,8.28
2018-12-18T10:45:49.224Z,8.34
2018-12-18T10:46:49.482Z,8.31
2018-12-18T10:47:49.505Z,8.33
2018-12-18T10:48:49.256Z,8.28
2018-12-18T10:49:49.282Z,8.34
2018-12-18T10:50:49.896Z,8.28
2018-12-18T10:51:49.842Z,8.28
2018-12-18T10:52:49.326Z,8.3
2018-12-18T10:53:49.631Z,8.31
2018-12-18T10:54:49.620Z,8.3
2018-12-18T10:55:49.655Z,8.34
2018-12-18T10:56:49.417Z,8.31
2018-12-18T10:57:49.696Z,8.31
2018-12-18T10:58:49.429Z,8.26
2018-12-18T10:59:49.461Z,8.26
2018-12-18T11:00:49.481Z,8.31
2018-12-18T11:01:49.750Z,8.34
2018-12-18T11:02:49.773Z,8.34
2018-12-18T11:03:50.049Z,8.33
2018-12-18T11:04:50.111Z,8.28
2018-12-18T11:05:49.832Z,8.34
2018-12-18T11:06:49.843Z,8.23
2018-12-18T11:07:49.848Z,8.31
2018-12-18T11:08:49.628Z,8.28
2018-12-18T11:09:49.626Z,8.33
2018-12-18T11:10:49.904Z,8.28
2018-12-18T11:11:49.921Z,8.31
2018-12-18T11:12:49.682Z,8.31
2018-12-18T11:13:49.968Z,8.3
2018-12-18T11:14:49.712Z,8.26
2018-12-18T11:15:49.731Z,8.28
2018-12-18T11:16:50.022Z,8.28
2018-12-18T11:17:50.037Z,8.26
2018-12-18T11:18:49.805Z,8.3
2018-12-18T11:19:49.812Z,8.31
2018-12-18T11:20:50.137Z,8.28
2018-12-18T11:21:50.165Z,8.3
2018-12-18T11:22:49.862Z,8.31
2018-12-18T11:23:50.133Z,8.28
2018-12-18T11:24:50.408Z,8.31
2018-12-18T11:25:50.444Z,8.26
2018-12-18T11:26:49.928Z,8.24
2018-12-18T11:27:49.953Z,8.28
2018-12-18T11:28:49.968Z,8.26
2018-12-18T11:29:49.995Z,8.28
2018-12-18T11:30:50.258Z,8.3
2018-12-18T11:31:50.012Z,8.27
2018-12-18T11:32:50.555Z,8.26
2018-12-18T11:33:50.311Z,8.26
2018-12-18T11:34:50.076Z,8.27
2018-12-18T11:35:50.085Z,8.24
2018-12-18T11:36:50.377Z,8.27
2018-12-18T11:37:50.394Z,8.28
2018-12-18T11:38:50.396Z,8.28
2018-12-18T11:39:50.416Z,8.27
2018-12-18T11:40:50.453Z,8.3
2018-12-18T11:41:50.196Z,8.36
2018-12-18T11:42:50.485Z,8.31
2018-12-18T11:43:50.385Z,8.33
2018-12-18T11:44:50.513Z,8.27
2018-12-18T11:45:50.780Z,8.3
2018-12-18T11:46:50.806Z,8.37
2018-12-18T11:47:50.553Z,8.34
2018-12-18T11:48:50.314Z,8.31
2018-12-18T11:49:50.589Z,8.36
2018-12-18T11:50:50.608Z,8.41
2018-12-18T11:51:50.627Z,8.36
2018-12-18T11:52:50.651Z,8.38
2018-12-18T11:53:50.679Z,8.37
2018-12-18T11:54:50.429Z,8.37
2018-12-18T11:55:50.976Z,8.41
2018-12-18T11:56:50.721Z,8.36
2018-12-18T11:57:50.742Z,8.33
2018-12-18T11:58:50.506Z,8.42
2018-12-18T11:59:51.041Z,8.36
2018-12-18T12:00:50.523Z,8.31
2018-12-18T12:01:50.808Z,8.34
2018-12-18T12:02:50.571Z,8.36
2018-12-18T12:03:50.579Z,8.44
2018-12-18T12:04:51.125Z,8.37
2018-12-18T12:05:51.130Z,8.41
2018-12-18T12:06:50.889Z,8.38
2018-12-18T12:07:50.906Z,8.45
2018-12-18T12:08:50.924Z,8.36
2018-12-18T12:09:50.684Z,8.38
2018-12-18T12:10:50.955Z,8.41
2018-12-18T12:11:50.974Z,8.42
2018-12-18T12:12:50.997Z,8.49
2018-12-18T12:13:51.013Z,8.37
2018-12-18T12:14:51.033Z,8.37
2018-12-18T12:15:51.047Z,8.38
2018-12-18T12:16:51.068Z,8.37
2018-12-18T12:17:51.082Z,8.33
2018-12-18T12:18:51.360Z,8.33
2018-12-18T12:19:50.879Z,8.44
2018-12-18T12:20:51.144Z,8.44
2018-12-18T12:21:51.160Z,8.37
2018-12-18T12:22:50.913Z,8.42
2018-12-18T12:23:50.940Z,8.37
2018-12-18T12:24:51.201Z,8.34
2018-12-18T12:25:51.221Z,8.37
2018-12-18T12:26:51.235Z,8.36
2018-12-18T12:27:51.270Z,8.38
2018-12-18T12:28:51.284Z,8.36
2018-12-18T12:29:51.039Z,8.33
2018-12-18T12:30:51.318Z,8.38
2018-12-18T12:31:51.340Z,8.36
2018-12-18T12:32:51.624Z,8.34
2018-12-18T12:33:51.357Z,8.34
2018-12-18T12:34:51.382Z,8.3
2018-12-18T12:35:51.138Z,8.3
2018-12-18T12:36:51.719Z,8.36
2018-12-18T12:37:51.441Z,8.34
2018-12-18T12:38:51.704Z,8.31
2018-12-18T12:39:51.483Z,8.37
2018-12-18T12:40:51.739Z,8.34
2018-12-18T12:41:51.511Z,8.34
2018-12-18T12:42:51.542Z,8.3
2018-12-18T12:43:51.552Z,8.3
2018-12-18T12:44:51.307Z,8.28
2018-12-18T12:45:51.585Z,8.28
2018-12-18T12:46:51.589Z,8.27
2018-12-18T12:47:51.876Z,8.27
2018-12-18T12:48:51.368Z,8.33
2018-12-18T12:49:51.673Z,8.26
2018-12-18T12:50:51.675Z,8.33
2018-12-18T12:51:51.678Z,8.31
2018-12-18T12:52:51.700Z,8.26
2018-12-18T12:53:51.970Z,8.34
2018-12-18T12:54:51.996Z,8.26
2018-12-18T12:55:51.754Z,8.26
2018-12-18T12:56:52.032Z,8.23
2018-12-18T12:57:51.784Z,8.2
2018-12-18T12:58:51.542Z,8.3
2018-12-18T12:59:52.093Z,8.26
2018-12-18T13:00:52.163Z,8.28
2018-12-18T13:01:51.594Z,8.26
2018-12-18T13:02:51.883Z,8.31
2018-12-18T13:03:51.893Z,8.31
2018-12-18T13:04:51.659Z,8.3
2018-12-18T13:05:51.674Z,8.31
2018-12-18T13:06:51.749Z,8.33
2018-12-18T13:07:51.713Z,8.3
2018-12-18T13:08:51.722Z,8.3
2018-12-18T13:09:52.006Z,8.31
2018-12-18T13:10:52.272Z,8.34
2018-12-18T13:11:51.773Z,8.28
2018-12-18T13:12:52.307Z,8.27
2018-12-18T13:13:52.078Z,8.3
2018-12-18T13:14:51.835Z,8.31
2018-12-18T13:15:52.110Z,8.34
2018-12-18T13:16:52.120Z,8.3
2018-12-18T13:17:51.881Z,8.33
2018-12-18T13:18:52.171Z,8.31
2018-12-18T13:19:52.172Z,8.31
2018-12-18T13:20:51.940Z,8.36
2018-12-18T13:21:51.955Z,8.37
2018-12-18T13:22:52.230Z,8.28